createdAt,value
2018-04-23T00:00:39.941Z,16.96
2018-04-23T00:03:08.297Z,16.96
2018-04-23T00:05:36.510Z,16.93
2018-04-23T00:08:04.609Z,16.91
2018-04-23T00:10:33.901Z,16.92
2018-04-23T00:13:01.981Z,17.08
2018-04-23T00:15:30.053Z,17.09
2018-04-23T00:17:58.400Z,17.19
2018-04-23T00:20:26.490Z,17.27
2018-04-23T00:22:54.562Z,17.40
2018-04-23T00:25:22.628Z,17.50
2018-04-23T00:27:50.699Z,17.63
2018-04-23T00:30:18.770Z,17.69
2018-04-23T00:32:47.045Z,17.71
2018-04-23T00:35:15.121Z,17.66
2018-04-23T00:37:43.186Z,17.66
2018-04-23T00:40:11.272Z,17.61
2018-04-23T00:42:39.329Z,17.53
2018-04-23T00:45:07.405Z,17.49
2018-04-23T00:47:35.496Z,17.52
2018-04-23T00:50:04.308Z,17.68
2018-04-23T00:52:32.413Z,17.76
2018-04-23T00:55:01.657Z,17.88
2018-04-23T00:57:30.524Z,17.96
2018-04-23T00:59:58.617Z,17.99
2018-04-23T01:02:26.972Z,18.02
2018-04-23T01:04:55.046Z,18.02
2018-04-23T01:07:23.421Z,18.02
2018-04-23T01:09:51.796Z,18.01
2018-04-23T01:12:19.869Z,18.02
2018-04-23T01:14:47.965Z,18.01
2018-04-23T01:17:16.057Z,17.99
2018-04-23T01:19:44.899Z,17.95
2018-04-23T01:22:12.997Z,17.96
2018-04-23T01:24:41.330Z,17.90
2018-04-23T01:27:09.398Z,17.81
2018-04-23T01:29:37.475Z,17.73
2018-04-23T01:32:05.663Z,17.72
2018-04-23T01:34:33.765Z,17.67
2018-04-23T01:37:01.809Z,17.63
2018-04-23T01:39:30.079Z,17.63
2018-04-23T01:41:58.152Z,17.63
2018-04-23T01:44:26.224Z,17.64
2018-04-23T01:46:54.304Z,17.64
2018-04-23T01:49:22.961Z,17.63
2018-04-23T01:51:51.001Z,17.61
2018-04-23T01:54:19.854Z,17.54
2018-04-23T01:56:48.053Z,17.58
2018-04-23T01:59:16.916Z,17.57
2018-04-23T02:01:44.984Z,17.56
2018-04-23T02:04:13.044Z,17.58
2018-04-23T02:06:41.124Z,17.56
2018-04-23T02:09:09.726Z,17.48
2018-04-23T02:11:37.780Z,17.49
2018-04-23T02:14:05.843Z,17.55
2018-04-23T02:16:33.933Z,17.55
2018-04-23T02:19:01.993Z,17.56
2018-04-23T02:21:30.242Z,17.58
2018-04-23T02:23:58.336Z,17.54
2018-04-23T02:26:26.425Z,17.46
2018-04-23T02:28:54.500Z,17.40
2018-04-23T02:31:22.605Z,17.42
2018-04-23T02:33:51.436Z,17.43
2018-04-23T02:36:19.505Z,17.42
2018-04-23T02:38:47.921Z,17.42
2018-04-23T02:41:15.993Z,17.38
2018-04-23T02:43:44.064Z,17.32
2018-04-23T02:46:12.649Z,17.25
2018-04-23T02:48:40.716Z,17.18
2018-04-23T02:51:08.770Z,17.17
2018-04-23T02:53:36.939Z,17.16
2018-04-23T02:56:05.013Z,17.15
2018-04-23T02:58:33.116Z,17.15
2018-04-23T03:01:01.983Z,17.15
2018-04-23T03:03:30.056Z,17.09
2018-04-23T03:05:58.126Z,17.03
2018-04-23T03:08:26.370Z,16.92
2018-04-23T03:10:54.700Z,16.82
2018-04-23T03:13:22.825Z,16.84
2018-04-23T03:15:51.252Z,16.81
2018-04-23T03:18:20.145Z,16.78
2018-04-23T03:20:49.012Z,16.75
2018-04-23T03:23:17.076Z,16.71
2018-04-23T03:25:45.145Z,16.66
2018-04-23T03:28:13.243Z,16.60
2018-04-23T03:30:41.627Z,16.66
2018-04-23T03:33:10.513Z,16.68
2018-04-23T03:35:38.753Z,16.68
2018-04-23T03:38:06.833Z,16.64
2018-04-23T03:40:34.938Z,16.58
2018-04-23T03:43:03.797Z,16.52
2018-04-23T03:45:31.953Z,16.49
2018-04-23T03:48:00.018Z,16.43
2018-04-23T03:50:28.097Z,16.39
2018-04-23T03:52:56.521Z,16.26
2018-04-23T03:55:25.401Z,16.27
2018-04-23T03:57:53.491Z,16.20
2018-04-23T04:00:24.729Z,16.17
2018-04-23T04:02:53.563Z,16.21
2018-04-23T04:05:21.645Z,16.13
2018-04-23T04:07:49.769Z,16.06
2018-04-23T04:10:18.659Z,15.99
2018-04-23T04:12:47.715Z,15.94
2018-04-23T04:15:16.293Z,15.94
2018-04-23T04:17:45.498Z,15.87
2018-04-23T04:20:13.665Z,15.90
2018-04-23T04:22:41.835Z,15.98
2018-04-23T04:25:09.941Z,15.94
2018-04-23T04:27:38.900Z,15.87
2018-04-23T04:30:07.072Z,15.89
2018-04-23T04:35:10.285Z,15.98
2018-04-23T04:37:38.352Z,16.03
2018-04-23T04:40:06.421Z,16.13
2018-04-23T04:42:34.509Z,16.29
2018-04-23T04:45:02.562Z,16.44
2018-04-23T04:47:30.644Z,16.59
2018-04-23T04:49:58.733Z,16.78
2018-04-23T04:52:26.805Z,16.95
2018-04-23T04:54:54.880Z,17.01
2018-04-23T04:57:23.226Z,16.98
2018-04-23T04:59:51.341Z,16.91
2018-04-23T05:02:19.416Z,16.97
2018-04-23T05:04:48.362Z,16.97
2018-04-23T05:07:16.433Z,16.97
2018-04-23T05:09:44.505Z,16.66
2018-04-23T05:12:12.913Z,16.13
2018-04-23T05:14:40.969Z,15.84
2018-04-23T05:17:09.029Z,15.51
2018-04-23T05:19:37.824Z,15.29
2018-04-23T05:22:06.910Z,15.10
2018-04-23T05:24:35.625Z,14.96
2018-04-23T05:27:04.324Z,14.79
2018-04-23T05:29:32.761Z,14.70
2018-04-23T05:32:02.234Z,14.67
2018-04-23T05:34:31.681Z,14.67
2018-04-23T05:37:00.472Z,14.63
2018-04-23T05:39:29.289Z,14.62
2018-04-23T05:41:58.552Z,14.55
2018-04-23T05:44:27.276Z,14.59
2018-04-23T05:46:56.764Z,14.64
2018-04-23T05:49:25.364Z,14.72
2018-04-23T05:51:54.933Z,14.83
2018-04-23T05:54:23.434Z,14.74
2018-04-23T05:56:52.140Z,14.85
2018-04-23T05:59:20.827Z,14.86
2018-04-23T06:01:49.573Z,14.92
2018-04-23T06:04:17.965Z,14.96
2018-04-23T06:06:46.841Z,15.08
2018-04-23T06:09:15.733Z,15.12
2018-04-23T06:11:44.148Z,15.09
2018-04-23T06:14:12.529Z,15.22
2018-04-23T06:16:41.193Z,15.39
2018-04-23T06:19:09.797Z,15.43
2018-04-23T06:21:38.208Z,15.57
2018-04-23T06:24:06.762Z,15.70
2018-04-23T06:26:35.617Z,15.84
2018-04-23T06:29:05.115Z,15.99
2018-04-23T06:31:34.024Z,16.22
2018-04-23T06:34:02.838Z,16.64
2018-04-23T06:36:32.813Z,17.23
2018-04-23T06:39:02.684Z,17.71
2018-04-23T06:41:31.273Z,18.00
2018-04-23T06:44:00.097Z,18.08
2018-04-23T06:46:29.029Z,17.95
2018-04-23T06:48:57.673Z,17.62
2018-04-23T06:51:25.740Z,17.44
2018-04-23T06:53:54.429Z,17.38
2018-04-23T06:56:22.533Z,17.02
2018-04-23T06:58:50.598Z,16.84
2018-04-23T07:01:19.364Z,16.82
2018-04-23T07:03:48.340Z,16.72
2018-04-23T07:06:16.741Z,16.61
2018-04-23T07:08:46.382Z,16.70
2018-04-23T07:11:15.192Z,16.76
2018-04-23T07:13:43.747Z,16.71
2018-04-23T07:16:11.800Z,16.93
2018-04-23T07:18:40.364Z,17.05
2018-04-23T07:21:09.045Z,17.20
2018-04-23T07:23:38.031Z,17.36
2018-04-23T07:26:06.932Z,17.36
2018-04-23T07:28:35.485Z,17.59
2018-04-23T07:31:03.585Z,17.73
2018-04-23T07:33:32.496Z,17.90
2018-04-23T07:36:01.310Z,18.23
2018-04-23T07:38:29.897Z,18.09
2018-04-23T07:40:58.676Z,17.98
2018-04-23T07:43:28.144Z,18.10
2018-04-23T07:45:56.981Z,18.40
2018-04-23T07:48:26.490Z,18.32
2018-04-23T07:50:56.295Z,18.73
2018-04-23T07:53:26.361Z,19.38
2018-04-23T07:55:55.148Z,19.69
2018-04-23T07:58:23.817Z,20.76
2018-04-23T08:00:52.671Z,21.43
2018-04-23T08:03:20.823Z,22.26
2018-04-23T08:05:49.080Z,23.09
2018-04-23T08:08:17.252Z,23.47
2018-04-23T08:10:46.253Z,23.41
2018-04-23T08:13:14.330Z,24.04
2018-04-23T08:15:42.811Z,24.50
2018-04-23T08:18:11.994Z,25.30
2018-04-23T08:20:41.196Z,25.43
2018-04-23T08:23:09.979Z,27.20
2018-04-23T08:25:38.409Z,27.19
2018-04-23T08:28:07.274Z,26.27
2018-04-23T08:30:35.948Z,25.43
2018-04-23T08:33:04.817Z,23.73
2018-04-23T08:35:33.966Z,24.18
2018-04-23T08:38:03.008Z,24.19
2018-04-23T08:40:31.824Z,24.96
2018-04-23T08:43:00.854Z,25.69
2018-04-23T08:45:30.372Z,26.92
2018-04-23T08:48:00.187Z,28.40
2018-04-23T08:50:29.136Z,28.91
2018-04-23T08:52:57.724Z,30.00
2018-04-23T08:55:26.528Z,29.12
2018-04-23T08:57:56.415Z,29.25
2018-04-23T09:00:25.315Z,28.12
2018-04-23T09:02:54.108Z,28.52
2018-04-23T09:05:23.015Z,29.62
2018-04-23T09:07:52.599Z,28.56
2018-04-23T09:10:21.480Z,29.94
2018-04-23T09:12:49.663Z,30.08
2018-04-23T09:15:18.482Z,30.58
2018-04-23T09:17:47.959Z,30.03
2018-04-23T09:20:16.865Z,28.84
2018-04-23T09:22:45.620Z,27.36
2018-04-23T09:25:14.586Z,27.41
2018-04-23T09:27:43.537Z,26.85
2018-04-23T09:30:13.015Z,25.81
2018-04-23T09:32:41.531Z,25.27
2018-04-23T09:35:11.208Z,25.17
2018-04-23T09:37:40.253Z,25.00
2018-04-23T09:40:09.829Z,24.14
2018-04-23T09:42:39.088Z,23.49
2018-04-23T09:45:08.129Z,23.92
2018-04-23T09:47:36.814Z,23.48
2018-04-23T09:50:05.749Z,24.03
2018-04-23T09:52:35.316Z,24.50
2018-04-23T09:55:04.149Z,25.86
2018-04-23T09:57:33.001Z,27.56
2018-04-23T10:00:03.174Z,29.33
2018-04-23T10:02:31.949Z,29.18
2018-04-23T10:05:00.121Z,29.06
2018-04-23T10:07:29.372Z,29.16
2018-04-23T10:09:59.197Z,26.94
2018-04-23T10:12:28.661Z,27.82
2018-04-23T10:14:57.549Z,27.47
2018-04-23T10:17:26.270Z,27.11
2018-04-23T10:19:55.788Z,25.76
2018-04-23T10:22:24.665Z,25.69
2018-04-23T10:24:53.237Z,26.04
2018-04-23T10:27:21.294Z,24.91
2018-04-23T10:29:50.273Z,25.01
2018-04-23T10:32:18.372Z,24.92
2018-04-23T10:34:47.277Z,24.52
2018-04-23T10:37:15.317Z,24.54
2018-04-23T10:39:44.133Z,24.72
2018-04-23T10:42:12.922Z,23.94
2018-04-23T10:44:41.813Z,24.05
2018-04-23T10:47:11.510Z,25.59
2018-04-23T10:49:39.671Z,27.03
2018-04-23T10:52:09.106Z,26.14
2018-04-23T10:54:38.612Z,25.94
2018-04-23T10:57:08.222Z,27.22
2018-04-23T10:59:37.720Z,25.89
2018-04-23T11:02:06.559Z,25.86
2018-04-23T11:04:35.503Z,27.99
2018-04-23T11:07:05.101Z,25.91
2018-04-23T11:09:34.097Z,26.25
2018-04-23T11:12:02.657Z,25.96
2018-04-23T11:14:31.784Z,24.98
2018-04-23T11:17:00.692Z,24.77
2018-04-23T11:19:29.617Z,24.58
2018-04-23T11:21:58.221Z,26.14
2018-04-23T11:24:26.328Z,27.87
2018-04-23T11:33:42.061Z,27.09
2018-04-23T11:36:11.761Z,26.59
2018-04-23T11:38:41.506Z,26.86
2018-04-23T11:41:10.373Z,24.44
2018-04-23T11:43:39.152Z,24.03
2018-04-23T11:46:08.802Z,24.15
2018-04-23T11:48:38.520Z,23.70
2018-04-23T11:51:07.211Z,23.62
2018-04-23T11:53:35.324Z,22.78
2018-04-23T11:56:04.749Z,22.87
2018-04-23T11:58:34.221Z,22.67
2018-04-23T12:01:03.941Z,23.47
2018-04-23T12:03:33.347Z,22.86
2018-04-23T12:06:03.053Z,23.46
2018-04-23T12:08:32.405Z,24.51
2018-04-23T12:11:01.035Z,24.55
2018-04-23T12:13:29.908Z,25.15
2018-04-23T12:15:58.008Z,23.77
2018-04-23T12:18:27.412Z,23.21
2018-04-23T12:20:57.016Z,23.11
2018-04-23T12:23:26.790Z,23.53
2018-04-23T12:25:55.896Z,23.34
2018-04-23T12:28:24.387Z,24.46
2018-04-23T12:30:52.952Z,25.55
2018-04-23T12:33:21.061Z,26.04
2018-04-23T12:35:50.945Z,24.68
2018-04-23T12:38:19.037Z,23.94
2018-04-23T12:40:48.480Z,23.93
2018-04-23T12:43:16.824Z,23.71
2018-04-23T12:45:45.660Z,23.56
2018-04-23T12:48:14.397Z,23.03
2018-04-23T12:50:42.937Z,22.53
2018-04-23T12:53:11.869Z,22.56
2018-04-23T12:55:41.465Z,23.80
2018-04-23T12:58:09.542Z,23.71
2018-04-23T13:00:38.341Z,23.14
2018-04-23T13:03:07.745Z,22.49
2018-04-23T13:05:36.616Z,21.99
2018-04-23T13:08:04.686Z,22.11
2018-04-23T13:10:33.595Z,22.23
2018-04-23T13:13:02.234Z,23.31
2018-04-23T13:15:30.821Z,24.78
2018-04-23T13:18:00.528Z,25.60
2018-04-23T13:20:28.631Z,24.54
2018-04-23T13:22:57.517Z,23.96
2018-04-23T13:25:27.449Z,23.78
2018-04-23T13:27:57.441Z,23.95
2018-04-23T13:30:25.538Z,25.55
2018-04-23T13:32:54.241Z,27.08
2018-04-23T13:35:23.813Z,27.63
2018-04-23T13:37:52.909Z,27.92
2018-04-23T13:40:20.999Z,26.98
2018-04-23T13:42:50.552Z,26.13
2018-04-23T13:45:18.642Z,25.29
2018-04-23T13:47:47.449Z,24.62
2018-04-23T13:50:16.259Z,24.30
2018-04-23T13:52:46.136Z,24.19
2018-04-23T13:55:14.200Z,24.17
2018-04-23T13:57:43.820Z,24.21
2018-04-23T14:00:12.793Z,24.45
2018-04-23T14:02:42.320Z,23.73
2018-04-23T14:05:10.385Z,22.59
2018-04-23T14:07:39.060Z,22.28
2018-04-23T14:10:07.157Z,21.79
2018-04-23T14:12:35.241Z,21.46
2018-04-23T14:15:03.340Z,21.30
2018-04-23T14:17:32.313Z,21.40
2018-04-23T14:20:02.821Z,21.23
2018-04-23T14:22:33.453Z,21.50
2018-04-23T14:25:01.537Z,22.53
2018-04-23T14:27:29.963Z,23.31
2018-04-23T14:29:58.038Z,23.42
2018-04-23T14:32:26.109Z,23.23
2018-04-23T14:34:54.429Z,22.95
2018-04-23T14:37:22.480Z,22.64
2018-04-23T14:39:50.541Z,22.69
2018-04-23T14:42:18.863Z,23.07
2018-04-23T14:44:48.641Z,23.33
2018-04-23T14:47:16.701Z,23.34
2018-04-23T14:49:45.821Z,23.08
2018-04-23T14:52:14.921Z,23.25
2018-04-23T14:54:42.989Z,23.28
2018-04-23T14:57:11.038Z,23.67
2018-04-23T14:59:39.105Z,23.67
2018-04-23T15:02:07.205Z,23.95
2018-04-23T15:04:35.245Z,24.17
2018-04-23T15:07:04.033Z,23.99
2018-04-23T15:09:32.852Z,23.70
2018-04-23T15:12:01.805Z,23.36
2018-04-23T15:14:30.501Z,22.21
2018-04-23T15:16:58.573Z,21.96
2018-04-23T15:19:27.297Z,21.89
2018-04-23T15:21:56.647Z,22.07
2018-04-23T15:24:24.717Z,22.31
2018-04-23T15:26:53.853Z,22.63
2018-04-23T15:29:22.862Z,22.99
2018-04-23T15:31:51.752Z,22.66
2018-04-23T15:34:20.645Z,22.58
2018-04-23T15:36:48.714Z,22.28
2018-04-23T15:39:17.914Z,21.85
2018-04-23T15:41:47.525Z,21.27
2018-04-23T15:44:16.398Z,21.24
2018-04-23T15:46:46.590Z,21.43
2018-04-23T15:49:14.672Z,21.28
2018-04-23T15:51:43.700Z,21.17
2018-04-23T15:54:12.544Z,21.17
2018-04-23T15:56:40.685Z,20.74
2018-04-23T15:59:09.096Z,20.88
2018-04-23T16:01:38.033Z,20.73
2018-04-23T16:04:06.892Z,20.64
2018-04-23T16:06:34.989Z,20.67
2018-04-23T16:09:03.812Z,20.94
2018-04-23T16:11:31.906Z,20.56
2018-04-23T16:13:59.973Z,20.31
2018-04-23T16:16:28.405Z,20.31
2018-04-23T16:18:56.489Z,19.86
2018-04-23T16:21:25.355Z,20.01
2018-04-23T16:23:54.157Z,19.98
2018-04-23T16:26:22.217Z,19.77
2018-04-23T16:28:50.289Z,19.80
2018-04-23T16:31:18.637Z,19.95
2018-04-23T16:33:46.734Z,20.18
2018-04-23T16:36:14.870Z,20.32
2018-04-23T16:38:43.289Z,20.26
2018-04-23T16:41:11.381Z,20.05
2018-04-23T16:43:40.265Z,19.69
2018-04-23T16:46:09.357Z,19.56
2018-04-23T16:48:37.617Z,19.42
2018-04-23T16:51:05.709Z,19.41
2018-04-23T16:53:34.073Z,19.46
2018-04-23T16:56:02.161Z,19.39
2018-04-23T16:58:31.020Z,19.29
2018-04-23T17:00:59.178Z,19.26
2018-04-23T17:03:27.993Z,19.26
2018-04-23T17:05:56.056Z,19.26
2018-04-23T17:08:24.252Z,19.25
2018-04-23T17:10:52.344Z,19.22
2018-04-23T17:13:21.424Z,19.30
2018-04-23T17:15:49.510Z,19.36
2018-04-23T17:18:18.366Z,19.21
2018-04-23T17:20:46.978Z,19.14
2018-04-23T17:23:15.829Z,19.09
2018-04-23T17:25:43.945Z,19.11
2018-04-23T17:28:13.029Z,19.07
2018-04-23T17:30:41.916Z,19.09
2018-04-23T17:33:09.979Z,18.96
2018-04-23T17:35:38.955Z,18.93
2018-04-23T17:38:07.065Z,18.83
2018-04-23T17:40:35.919Z,18.81
2018-04-23T17:43:04.009Z,18.84
2018-04-23T17:45:32.097Z,19.03
2018-04-23T17:48:00.948Z,19.16
2018-04-23T17:50:29.409Z,19.18
2018-04-23T17:52:57.497Z,19.21
2018-04-23T17:55:25.621Z,19.03
2018-04-23T17:57:54.929Z,18.90
2018-04-23T18:00:23.177Z,18.64
2018-04-23T18:02:51.256Z,18.63
2018-04-23T18:05:20.124Z,18.62
2018-04-23T18:07:48.196Z,18.62
2018-04-23T18:10:16.281Z,18.60
2018-04-23T18:12:44.385Z,18.60
2018-04-23T18:15:12.474Z,18.53
2018-04-23T18:17:40.563Z,18.48
2018-04-23T18:20:08.869Z,18.40
2018-04-23T18:22:36.940Z,18.34
2018-04-23T18:25:05.033Z,18.19
2018-04-23T18:27:33.980Z,18.06
2018-04-23T18:30:02.858Z,17.90
2018-04-23T18:32:30.933Z,17.82
2018-04-23T18:34:59.018Z,17.80
2018-04-23T18:37:27.423Z,17.70
2018-04-23T18:39:55.516Z,17.65
2018-04-23T18:42:24.340Z,17.59
2018-04-23T18:44:52.436Z,17.54
2018-04-23T18:47:20.530Z,17.38
2018-04-23T18:49:48.657Z,17.38
2018-04-23T18:52:17.805Z,17.35
2018-04-23T18:54:46.665Z,17.37
2018-04-23T18:57:14.766Z,17.41
2018-04-23T18:59:43.965Z,17.44
2018-04-23T19:02:12.858Z,17.36
2018-04-23T19:04:41.716Z,17.25
2018-04-23T19:07:10.094Z,17.11
2018-04-23T19:09:39.689Z,17.01
2018-04-23T19:12:07.773Z,16.90
2018-04-23T19:14:35.915Z,16.85
2018-04-23T19:17:04.005Z,16.78
2018-04-23T19:19:32.228Z,16.68
2018-04-23T19:22:00.387Z,16.52
2018-04-23T19:24:28.429Z,16.38
2018-04-23T19:26:56.512Z,16.35
2018-04-23T19:29:24.585Z,16.28
2018-04-23T19:31:53.551Z,16.21
2018-04-23T19:34:21.653Z,16.16
2018-04-23T19:36:50.133Z,16.07
2018-04-23T19:39:18.225Z,15.96
2018-04-23T19:41:47.117Z,15.82
2018-04-23T19:44:16.012Z,15.81
2018-04-23T19:46:44.873Z,15.82
2018-04-23T19:49:12.950Z,15.67
2018-04-23T19:51:41.295Z,15.53
2018-04-23T19:54:09.413Z,15.46
2018-04-23T19:56:38.392Z,15.45
2018-04-23T19:59:06.481Z,15.39
2018-04-23T20:01:35.373Z,15.34
2018-04-23T20:04:04.540Z,15.32
2018-04-23T20:06:32.621Z,15.34
2018-04-23T20:09:00.680Z,15.24
2018-04-23T20:11:29.089Z,15.19
2018-04-23T20:13:57.928Z,15.13
2018-04-23T20:16:26.012Z,15.05
2018-04-23T20:18:54.429Z,14.87
2018-04-23T20:21:23.416Z,14.85
2018-04-23T20:23:51.494Z,14.73
2018-04-23T20:26:20.354Z,14.67
2018-04-23T20:28:48.420Z,14.58
2018-04-23T20:31:16.518Z,14.51
2018-04-23T20:33:45.691Z,14.40
2018-04-23T20:36:13.786Z,14.34
2018-04-23T20:38:42.659Z,14.20
2018-04-23T20:41:11.013Z,14.17
2018-04-23T20:43:39.077Z,14.12
2018-04-23T20:46:07.192Z,14.04
2018-04-23T20:48:35.747Z,14.02
2018-04-23T20:51:03.810Z,13.95
2018-04-23T20:53:31.901Z,13.93
2018-04-23T20:55:59.989Z,13.96
2018-04-23T20:58:28.048Z,13.93
2018-04-23T21:00:56.105Z,13.98
2018-04-23T21:03:24.188Z,13.86
2018-04-23T21:05:52.299Z,13.77
2018-04-23T21:08:21.161Z,13.73
2018-04-23T21:10:49.567Z,13.69
2018-04-23T21:13:18.420Z,13.63
2018-04-23T21:15:46.477Z,13.60
2018-04-23T21:18:14.857Z,13.54
2018-04-23T21:20:42.951Z,13.47
2018-04-23T21:23:11.017Z,13.42
2018-04-23T21:25:39.345Z,13.38
2018-04-23T21:28:08.232Z,13.27
2018-04-23T21:30:36.248Z,13.19
2018-04-23T21:33:04.624Z,13.13
2018-04-23T21:35:32.696Z,13.10
2018-04-23T21:38:00.790Z,13.05
2018-04-23T21:40:28.896Z,13.03
2018-04-23T21:42:57.741Z,12.94
2018-04-23T21:45:25.800Z,12.92
2018-04-23T21:47:54.077Z,12.85
2018-04-23T21:50:22.160Z,12.82
2018-04-23T21:52:50.216Z,12.78
2018-04-23T21:55:18.298Z,12.74
2018-04-23T21:57:46.369Z,12.71
2018-04-23T22:00:14.849Z,12.71
2018-04-23T22:02:43.332Z,12.70
2018-04-23T22:05:11.310Z,12.67
2018-04-23T22:07:39.393Z,12.68
2018-04-23T22:10:07.942Z,12.70
2018-04-23T22:12:36.004Z,12.66
2018-04-23T22:15:04.388Z,12.73
2018-04-23T22:17:32.813Z,12.71
2018-04-23T22:20:00.894Z,12.75
2018-04-23T22:22:29.746Z,12.70
2018-04-23T22:24:58.022Z,12.70
2018-04-23T22:27:26.081Z,12.66
2018-04-23T22:29:54.171Z,12.64
2018-04-23T22:32:22.765Z,12.62
2018-04-23T22:34:50.861Z,12.60
2018-04-23T22:37:19.719Z,12.62
2018-04-23T22:39:48.044Z,12.73
2018-04-23T22:42:16.864Z,12.73
2018-04-23T22:44:44.949Z,12.69
2018-04-23T22:47:13.037Z,12.65
2018-04-23T22:49:41.117Z,12.63
2018-04-23T22:52:09.160Z,12.62
2018-04-23T22:54:37.760Z,12.60
2018-04-23T22:57:07.352Z,12.55
2018-04-23T22:59:35.441Z,12.53
2018-04-23T23:02:03.616Z,12.48
2018-04-23T23:04:31.688Z,12.43
2018-04-23T23:06:59.799Z,12.36
2018-04-23T23:09:27.845Z,12.30
2018-04-23T23:11:56.705Z,12.24
2018-04-23T23:14:25.006Z,12.21
2018-04-23T23:16:54.072Z,12.14
2018-04-23T23:19:22.177Z,12.06
2018-04-23T23:21:51.013Z,12.00
2018-04-23T23:24:19.125Z,11.96
2018-04-23T23:26:47.209Z,11.94
2018-04-23T23:29:16.069Z,11.91
2018-04-23T23:31:44.233Z,11.89
2018-04-23T23:34:12.313Z,11.88
2018-04-23T23:36:40.377Z,11.85
2018-04-23T23:39:08.654Z,11.84
2018-04-23T23:41:36.712Z,11.85
2018-04-23T23:44:04.781Z,11.87
2018-04-23T23:46:33.114Z,11.84
2018-04-23T23:49:01.969Z,11.87
2018-04-23T23:51:30.073Z,11.93
2018-04-23T23:53:58.399Z,11.90
2018-04-23T23:56:26.485Z,11.90
2018-04-23T23:58:54.565Z,11.82
